Terminal Aerodrome Forecast
Issued by NWS Sioux Falls, SD

Home | Current Version | Previous Version | Text Only | Print | Product List | Glossary On
Versions: 1 2 3 4 5 6 7 8 9 10 11 12 13 14 15 16 17 18
000
FTUS43 KFSD 230246 AAB
TAFFSD
TAF AMD
KFSD 230246Z 2303/2324 28007KT P6SM SCT008 BKN020
      TEMPO 2303/2306 BKN008
     FM230600 24004KT P6SM SCT100
     FM231500 19006KT P6SM SCT250=

USA.gov is the U.S. government's official web portal to all federal, state and local government web resources and services.